TAF KRIW
KRIW 072327Z 0800/0824 30016KT P6SM SKC FM080600 VRB05KT P6SM SKC FM082030 26022G35KT P6SM SKC=
METAR KRIW
WC KRIW
WS KRIW
WV KRIW